Bigneck, Illinois
Current Conditions -  °F | °C
As of 2:54 AM on Monday 22 Dec 2014 (Local Time) from KUIN Reporting Station
Overcast Overcast  
Wind Chill: 32°   Ceiling: 5500
Heat Index: 39°   Visibility: 8mi
Dew Point: 33°   Wind: 12mph
Humidity: 79%   Direction: 140°SE
Pressure: 29.83"   Gusts: NA
Location:  40.1526°N, 91.2028°W
Report Text: KUIN 220854Z AUTO 14010KT 8SM BKN055 OVC075 04/01 A2983 RMK AO2 SLP103 T00390006 58019
Loading
Personal Weather Stations






























Interactive Weather Map New forecast layout! Learn more

10-Day Weather Forecast

Advertisements
Track Severe Weather on mobile